THF weather

CLOSED Berlin-Tempelhof International Airport
Berlin, Berlin, Germany

Public forecast

Using degrees Celsius for public forecast. Weather courtesy of forecast.io.

Closest aviation weather report (METAR) to Berlin-Tempelhof International Airport

Closest report is Berlin-Tegel Airport, 6.7 nm (12.4 km) NW. Retrieved 2019/11/12 00:20 UTC (0 seconds ago):

EDDT 120020Z 15006KT CAVOK 02/M00 Q1005

Closest aviation forecast (TAF) to Berlin-Tempelhof International Airport

Closest forecast is Berlin-Tegel Airport, 6.7 nm (12.4 km) NW. Retrieved 2019-11-12 00:27 UTC (0 seconds ago):

TAF EDDT 112300Z 1200/1224 18007KT 9999 SCT030